createdAt,value
2022-08-05T00:00:43.097Z,5.13
2022-08-05T00:03:15.675Z,4.72
2022-08-05T00:06:04.661Z,4.70
2022-08-05T00:08:36.199Z,5.43
2022-08-05T00:11:30.172Z,5.93
2022-08-05T00:13:58.184Z,5.40
2022-08-05T00:16:35.396Z,5.50
2022-08-05T00:19:05.219Z,5.75
2022-08-05T00:21:35.891Z,6.10
2022-08-05T00:24:10.561Z,5.55
2022-08-05T00:26:46.701Z,5.90
2022-08-05T00:30:29.254Z,6.10
2022-08-05T00:32:59.780Z,6.20
2022-08-05T00:35:33.325Z,6.83
2022-08-05T00:38:03.492Z,7.00
2022-08-05T00:40:53.289Z,6.20
2022-08-05T00:43:21.549Z,6.45
2022-08-05T00:45:49.528Z,6.40
2022-08-05T00:48:27.670Z,6.53
2022-08-05T00:50:59.593Z,6.80
2022-08-05T00:54:00.575Z,7.20
2022-08-05T00:56:24.973Z,7.00
2022-08-05T00:58:52.667Z,7.35
2022-08-05T01:01:24.935Z,7.22
2022-08-05T01:04:14.304Z,8.35
2022-08-05T01:06:48.537Z,8.55
2022-08-05T01:09:20.008Z,10.13
2022-08-05T01:11:51.705Z,9.10
2022-08-05T01:14:28.420Z,9.85
2022-08-05T01:17:58.033Z,10.60
2022-08-05T01:20:31.625Z,10.73
2022-08-05T01:23:15.295Z,10.38
2022-08-05T01:27:01.041Z,10.25
2022-08-05T01:29:51.840Z,10.07
2022-08-05T01:32:23.841Z,10.55
2022-08-05T01:34:58.343Z,10.60
2022-08-05T01:37:32.246Z,11.43
2022-08-05T01:40:03.037Z,11.85
2022-08-05T01:42:33.063Z,10.85
2022-08-05T01:45:03.463Z,11.02
2022-08-05T01:47:39.277Z,10.80
2022-08-05T01:50:15.314Z,10.93
2022-08-05T01:52:44.642Z,10.95
2022-08-05T01:55:19.873Z,11.43
2022-08-05T01:58:11.867Z,11.52
2022-08-05T02:00:44.399Z,12.15
2022-08-05T02:03:29.030Z,11.73
2022-08-05T02:06:03.748Z,12.13
2022-08-05T02:08:58.549Z,12.13
2022-08-05T02:11:32.751Z,13.18
2022-08-05T02:14:07.233Z,11.80
2022-08-05T02:18:31.988Z,12.23
2022-08-05T02:20:41.671Z,12.73
2022-08-05T02:23:12.187Z,12.93
2022-08-05T02:25:49.229Z,13.32
2022-08-05T02:28:28.882Z,13.17
2022-08-05T02:32:04.862Z,12.73
2022-08-05T02:34:34.008Z,12.00
2022-08-05T02:37:05.473Z,13.27
2022-08-05T02:39:36.991Z,12.83
2022-08-05T02:42:10.820Z,12.48
2022-08-05T02:44:56.364Z,12.75
2022-08-05T02:47:26.016Z,12.57
2022-08-05T02:51:17.978Z,12.45
2022-08-05T02:54:03.422Z,12.70
2022-08-05T02:56:33.683Z,12.20
2022-08-05T02:59:02.484Z,12.57
2022-08-05T03:01:33.277Z,11.77
2022-08-05T03:04:13.998Z,11.38
2022-08-05T03:06:54.363Z,12.05
2022-08-05T03:09:37.608Z,12.15
2022-08-05T03:12:11.756Z,12.77
2022-08-05T03:14:46.006Z,12.35
2022-08-05T03:17:16.656Z,11.70
2022-08-05T03:19:45.570Z,11.98
2022-08-05T03:22:16.832Z,12.25
2022-08-05T03:24:50.931Z,11.75
2022-08-05T03:27:19.767Z,12.48
2022-08-05T03:30:07.530Z,12.77
2022-08-05T03:32:36.112Z,11.93
2022-08-05T03:35:04.484Z,11.98
2022-08-05T03:37:46.558Z,12.38
2022-08-05T03:40:31.144Z,12.52
2022-08-05T03:43:15.912Z,12.73
2022-08-05T03:45:58.037Z,13.30
2022-08-05T03:48:27.566Z,12.60
2022-08-05T03:52:38.086Z,12.60
2022-08-05T03:56:00.722Z,12.03
2022-08-05T03:56:52.813Z,12.27
2022-08-05T03:59:26.082Z,12.52
2022-08-05T04:01:58.903Z,13.10
2022-08-05T04:04:30.007Z,14.02
2022-08-05T04:06:59.200Z,12.77
2022-08-05T04:09:27.950Z,13.00
2022-08-05T04:11:58.173Z,13.02
2022-08-05T04:14:29.823Z,13.05
2022-08-05T04:17:00.078Z,13.77
2022-08-05T04:19:29.762Z,12.90
2022-08-05T04:22:09.508Z,13.63
2022-08-05T04:24:43.828Z,12.90
2022-08-05T04:27:15.293Z,13.53
2022-08-05T04:29:43.573Z,12.70
2022-08-05T04:33:13.094Z,13.65
2022-08-05T04:36:15.804Z,14.25
2022-08-05T04:38:39.576Z,14.03
2022-08-05T04:41:09.602Z,14.25
2022-08-05T04:43:48.151Z,13.98
2022-08-05T04:46:28.231Z,14.40
2022-08-05T04:48:58.686Z,13.65
2022-08-05T04:51:30.309Z,14.90
2022-08-05T04:53:59.291Z,14.13
2022-08-05T04:56:34.326Z,14.38
2022-08-05T04:59:21.996Z,16.10
2022-08-05T05:02:06.850Z,16.10
2022-08-05T05:04:47.568Z,15.77
2022-08-05T05:07:23.944Z,15.43
2022-08-05T05:09:57.421Z,15.70
2022-08-05T05:12:27.562Z,14.83
2022-08-05T05:15:03.759Z,14.95
2022-08-05T05:17:57.067Z,14.40
2022-08-05T05:20:28.328Z,14.82
2022-08-05T05:22:56.846Z,14.07
2022-08-05T05:25:40.421Z,14.27
2022-08-05T05:28:09.673Z,13.15
2022-08-05T05:30:41.868Z,14.23
2022-08-05T05:33:17.095Z,14.25
2022-08-05T05:35:47.483Z,13.68
2022-08-05T05:38:22.862Z,11.77
2022-08-05T05:40:55.072Z,12.05
2022-08-05T05:43:54.201Z,12.45
2022-08-05T05:46:15.788Z,13.15
2022-08-05T05:48:48.323Z,12.43
2022-08-05T05:51:23.931Z,12.23
2022-08-05T05:53:57.697Z,12.15
2022-08-05T05:56:33.306Z,13.00
2022-08-05T05:59:05.248Z,12.57
2022-08-05T06:01:37.539Z,12.32
2022-08-05T06:04:11.695Z,12.93
2022-08-05T06:07:42.467Z,12.02
2022-08-05T06:10:29.250Z,10.37
2022-08-05T06:12:57.270Z,10.07
2022-08-05T06:15:25.824Z,9.97
2022-08-05T06:18:15.327Z,9.65
2022-08-05T06:20:43.296Z,10.32
2022-08-05T06:23:16.662Z,10.00
2022-08-05T06:26:13.387Z,10.75
2022-08-05T06:28:32.566Z,10.05
2022-08-05T06:31:01.138Z,10.73
2022-08-05T06:34:07.156Z,11.00
2022-08-05T06:36:29.638Z,10.93
2022-08-05T06:39:18.074Z,10.52
2022-08-05T06:41:50.667Z,10.75
2022-08-05T06:44:22.061Z,9.73
2022-08-05T06:46:51.268Z,9.13
2022-08-05T06:50:01.421Z,9.15
2022-08-05T06:52:36.978Z,9.00
2022-08-05T06:54:59.539Z,8.05
2022-08-05T06:58:03.714Z,8.00
2022-08-05T07:00:22.314Z,7.93
2022-08-05T07:02:54.416Z,8.37
2022-08-05T07:05:37.245Z,8.50
2022-08-05T07:08:06.419Z,8.82
2022-08-05T07:10:39.245Z,9.00
2022-08-05T07:13:57.786Z,9.52
2022-08-05T07:18:00.303Z,10.13
2022-08-05T07:20:10.521Z,10.20
2022-08-05T07:22:29.064Z,9.70
2022-08-05T07:24:59.879Z,10.02
2022-08-05T07:27:57.400Z,10.70
2022-08-05T07:30:39.149Z,10.23
2022-08-05T07:33:10.413Z,9.57
2022-08-05T07:36:03.727Z,10.30
2022-08-05T07:38:42.835Z,9.48
2022-08-05T07:42:14.318Z,11.27
2022-08-05T07:44:14.489Z,10.68
2022-08-05T07:46:49.274Z,10.38
2022-08-05T07:49:18.906Z,9.18
2022-08-05T07:51:53.717Z,8.75
2022-08-05T07:54:31.413Z,7.90
2022-08-05T07:57:17.982Z,8.05
2022-08-05T07:59:52.534Z,7.50
2022-08-05T08:02:26.478Z,7.93
2022-08-05T08:04:55.120Z,8.60
2022-08-05T08:07:23.378Z,7.40
2022-08-05T08:09:54.916Z,7.07
2022-08-05T08:12:37.518Z,6.53
2022-08-05T08:15:15.404Z,7.20
2022-08-05T08:17:52.309Z,6.60
2022-08-05T08:21:00.312Z,7.70
2022-08-05T08:24:00.323Z,6.88
2022-08-05T08:26:02.888Z,7.13
2022-08-05T08:28:36.050Z,7.10
2022-08-05T08:31:05.273Z,6.27
2022-08-05T08:33:38.063Z,6.40
2022-08-05T08:38:57.738Z,6.45
2022-08-05T08:41:51.287Z,6.63
2022-08-05T08:45:22.721Z,6.47
2022-08-05T08:47:21.876Z,6.97
2022-08-05T08:50:23.042Z,6.60
2022-08-05T08:52:51.790Z,6.07
2022-08-05T08:56:02.521Z,5.85
2022-08-05T08:58:16.717Z,5.45
2022-08-05T09:00:44.784Z,5.28
2022-08-05T09:03:16.138Z,5.87
2022-08-05T09:06:09.161Z,5.30
2022-08-05T09:08:40.087Z,4.60
2022-08-05T09:11:13.617Z,4.88
2022-08-05T09:14:00.803Z,5.23
2022-08-05T09:16:32.235Z,4.95
2022-08-05T09:19:00.131Z,4.10
2022-08-05T09:22:23.110Z,4.72
2022-08-05T09:24:17.733Z,4.43
2022-08-05T09:26:48.356Z,5.10
2022-08-05T09:29:21.062Z,5.53
2022-08-05T09:32:42.353Z,4.28
2022-08-05T09:34:54.884Z,4.47
2022-08-05T09:38:16.512Z,4.40
2022-08-05T09:40:31.077Z,4.30
2022-08-05T09:43:00.192Z,4.85
2022-08-05T09:46:06.860Z,4.50
2022-08-05T09:48:32.363Z,5.18
2022-08-05T09:51:01.859Z,4.70
2022-08-05T09:53:53.550Z,4.40
2022-08-05T09:56:27.487Z,4.28
2022-08-05T09:58:59.880Z,3.87
2022-08-05T10:01:32.478Z,4.15
2022-08-05T10:04:03.671Z,4.03
2022-08-05T10:06:32.015Z,3.95
2022-08-05T10:09:27.266Z,3.70
2022-08-05T10:11:56.211Z,3.88
2022-08-05T10:14:26.820Z,5.40
2022-08-05T10:16:57.315Z,4.57
2022-08-05T10:19:31.858Z,3.25
2022-08-05T10:22:15.640Z,4.43
2022-08-05T10:24:57.901Z,3.10
2022-08-05T10:28:09.709Z,2.80
2022-08-05T10:31:20.052Z,2.73
2022-08-05T10:33:08.969Z,2.45
2022-08-05T10:35:43.901Z,2.33
2022-08-05T10:38:14.162Z,1.90
2022-08-05T10:40:49.000Z,1.70
2022-08-05T10:43:30.837Z,1.90
2022-08-05T10:46:07.673Z,1.60
2022-08-05T10:48:56.868Z,2.10
2022-08-05T10:51:28.956Z,1.48
2022-08-05T10:54:00.972Z,1.52
2022-08-05T10:56:32.060Z,1.50
2022-08-05T11:00:01.279Z,1.30
2022-08-05T11:02:08.610Z,1.58
2022-08-05T11:04:59.441Z,1.20
2022-08-05T11:07:33.049Z,1.53
2022-08-05T11:10:23.117Z,1.23
2022-08-05T11:12:56.510Z,1.13
2022-08-05T11:16:00.803Z,1.03
2022-08-05T11:18:30.154Z,1.08
2022-08-05T11:21:11.304Z,1.10
2022-08-05T11:24:04.297Z,1.10
2022-08-05T11:26:33.346Z,1.20
2022-08-05T11:29:12.729Z,1.27
2022-08-05T11:31:58.906Z,1.30
2022-08-05T11:34:47.413Z,1.10
2022-08-05T11:38:28.067Z,1.05
2022-08-05T11:41:12.859Z,1.15
2022-08-05T11:44:05.559Z,1.20
2022-08-05T11:47:09.537Z,1.40
2022-08-05T11:49:34.062Z,1.60
2022-08-05T11:52:11.166Z,2.00
2022-08-05T11:54:41.671Z,2.05
2022-08-05T11:57:25.169Z,1.50
2022-08-05T11:59:55.016Z,2.20
2022-08-05T12:02:30.489Z,2.10
2022-08-05T12:05:01.095Z,2.30
2022-08-05T12:08:07.901Z,2.03
2022-08-05T12:10:24.801Z,2.50
2022-08-05T12:13:16.855Z,2.80
2022-08-05T12:15:49.798Z,2.38
2022-08-05T12:18:20.616Z,2.47
2022-08-05T12:20:52.845Z,2.70
2022-08-05T12:23:20.499Z,2.80
2022-08-05T12:25:56.930Z,3.85
2022-08-05T12:28:37.089Z,2.55
2022-08-05T12:32:09.562Z,2.70
2022-08-05T12:34:38.683Z,3.65
2022-08-05T12:37:17.033Z,2.90
2022-08-05T12:39:51.434Z,2.90
2022-08-05T12:42:25.430Z,2.88
2022-08-05T12:45:02.947Z,2.70
2022-08-05T12:48:01.018Z,2.88
2022-08-05T12:50:27.203Z,2.70
2022-08-05T12:52:59.742Z,2.90
2022-08-05T12:55:33.066Z,2.70
2022-08-05T12:58:49.717Z,2.70
2022-08-05T13:02:00.102Z,2.65
2022-08-05T13:03:43.021Z,3.00
2022-08-05T13:06:16.372Z,3.28
2022-08-05T13:08:52.499Z,3.65
2022-08-05T13:11:47.058Z,2.63
2022-08-05T13:14:19.413Z,2.70
2022-08-05T13:16:51.401Z,1.83
2022-08-05T13:19:22.948Z,1.30
2022-08-05T13:21:55.918Z,1.30
2022-08-05T13:24:45.003Z,0.50
2022-08-05T13:30:53.914Z,0.70
2022-08-05T13:34:21.354Z,0.90
2022-08-05T13:36:14.385Z,0.90
2022-08-05T13:38:43.277Z,0.70
2022-08-05T13:41:11.682Z,1.58
2022-08-05T13:43:44.528Z,0.43
2022-08-05T13:46:37.720Z,0.50
2022-08-05T13:49:12.742Z,0.43
2022-08-05T13:51:46.659Z,0.90
2022-08-05T13:54:16.062Z,1.73
2022-08-05T13:56:50.775Z,0.40
2022-08-05T13:59:21.318Z,0.70
2022-08-05T14:01:57.406Z,0.57
2022-08-05T14:04:49.843Z,0.45
2022-08-05T14:07:57.027Z,0.50
2022-08-05T14:10:12.378Z,0.30
2022-08-05T14:12:42.911Z,0.68
2022-08-05T14:16:04.312Z,0.63
2022-08-05T14:18:01.019Z,0.40
2022-08-05T14:20:30.825Z,0.47
2022-08-05T14:22:58.617Z,1.33
2022-08-05T14:25:28.427Z,0.30
2022-08-05T14:27:58.462Z,0.40
2022-08-05T14:30:27.869Z,0.65
2022-08-05T14:32:56.890Z,0.47
2022-08-05T14:35:37.534Z,0.20
2022-08-05T14:38:32.937Z,2.00
2022-08-05T14:41:06.685Z,0.38
2022-08-05T14:44:02.298Z,1.13
2022-08-05T14:46:29.101Z,0.40
2022-08-05T14:48:58.705Z,0.28
2022-08-05T14:51:30.808Z,0.33
2022-08-05T14:54:25.891Z,0.20
2022-08-05T14:56:54.576Z,0.55
2022-08-05T14:59:22.829Z,0.60
2022-08-05T15:01:51.444Z,0.40
2022-08-05T15:04:23.516Z,0.30
2022-08-05T15:06:56.053Z,0.40
2022-08-05T15:09:52.223Z,0.30
2022-08-05T15:12:16.452Z,0.40
2022-08-05T15:14:49.525Z,0.50
2022-08-05T15:17:47.709Z,2.60
2022-08-05T15:20:17.206Z,0.90
2022-08-05T15:22:53.979Z,0.40
2022-08-05T15:25:50.859Z,0.40
2022-08-05T15:28:14.395Z,0.25
2022-08-05T15:30:43.307Z,0.43
2022-08-05T15:33:11.730Z,0.50
2022-08-05T15:35:45.399Z,0.40
2022-08-05T15:38:34.854Z,0.30
2022-08-05T15:41:23.235Z,0.32
2022-08-05T15:43:52.224Z,0.20
2022-08-05T15:46:24.076Z,0.40
2022-08-05T15:49:01.062Z,0.20
2022-08-05T15:52:13.375Z,0.35
2022-08-05T15:54:35.176Z,0.70
2022-08-05T15:58:07.394Z,0.52
2022-08-05T16:00:56.998Z,0.43
2022-08-05T16:04:29.804Z,0.20
2022-08-05T16:06:58.156Z,0.50
2022-08-05T16:09:26.163Z,0.45
2022-08-05T16:11:54.447Z,0.30
2022-08-05T16:14:24.115Z,0.43
2022-08-05T16:16:54.727Z,0.52
2022-08-05T16:20:03.505Z,0.43
2022-08-05T16:22:13.327Z,0.30
2022-08-05T16:24:51.784Z,0.25
2022-08-05T16:27:47.279Z,0.60
2022-08-05T16:30:23.014Z,0.30
2022-08-05T16:32:55.340Z,0.40
2022-08-05T16:35:27.691Z,0.40
2022-08-05T16:38:16.109Z,1.20
2022-08-05T16:40:51.615Z,0.25
2022-08-05T16:43:24.286Z,0.30
2022-08-05T16:46:03.761Z,0.43
2022-08-05T16:48:38.920Z,0.60
2022-08-05T16:51:09.748Z,0.50
2022-08-05T16:54:04.304Z,0.52
2022-08-05T16:57:53.334Z,0.30
2022-08-05T17:00:26.306Z,0.40
2022-08-05T17:03:09.123Z,2.77
2022-08-05T17:05:44.741Z,2.92
2022-08-05T17:08:36.348Z,1.73
2022-08-05T17:11:12.544Z,0.30
2022-08-05T17:13:44.663Z,0.40
2022-08-05T17:16:29.935Z,0.65
2022-08-05T17:19:01.674Z,0.60
2022-08-05T17:21:35.680Z,0.73
2022-08-05T17:24:18.471Z,0.57
2022-08-05T17:26:53.715Z,0.50
2022-08-05T17:29:33.646Z,0.50
2022-08-05T17:32:11.781Z,0.50
2022-08-05T17:34:44.740Z,1.42
2022-08-05T17:37:41.165Z,0.50
2022-08-05T17:40:12.245Z,1.95
2022-08-05T17:42:51.369Z,0.70
2022-08-05T17:45:25.016Z,1.15
2022-08-05T17:47:57.631Z,0.45
2022-08-05T17:50:30.811Z,0.35
2022-08-05T17:53:04.642Z,0.57
2022-08-05T17:56:34.524Z,0.50
2022-08-05T17:59:05.371Z,0.20
2022-08-05T18:01:49.268Z,0.30
2022-08-05T18:04:21.049Z,1.27
2022-08-05T18:06:49.258Z,5.13
2022-08-05T18:09:19.233Z,0.40
2022-08-05T18:11:49.747Z,0.50
2022-08-05T18:14:22.251Z,6.30
2022-08-05T18:16:51.891Z,0.57
2022-08-05T18:19:22.644Z,2.10
2022-08-05T18:22:08.775Z,1.10
2022-08-05T18:24:40.361Z,0.75
2022-08-05T18:27:12.671Z,0.90
2022-08-05T18:29:54.017Z,1.00
2022-08-05T18:37:02.895Z,1.25
2022-08-05T18:40:30.979Z,2.17
2022-08-05T18:42:21.317Z,0.50
2022-08-05T18:44:55.673Z,1.95
2022-08-05T18:47:26.396Z,0.40
2022-08-05T18:50:12.879Z,0.38
2022-08-05T18:52:51.262Z,0.98
2022-08-05T18:56:25.389Z,0.45
2022-08-05T18:59:01.050Z,2.42
2022-08-05T19:01:47.846Z,0.80
2022-08-05T19:04:23.753Z,0.93
2022-08-05T19:06:54.447Z,4.13
2022-08-05T19:09:23.530Z,0.80
2022-08-05T19:12:01.022Z,0.85
2022-08-05T19:14:59.218Z,0.70
2022-08-05T19:17:22.198Z,0.90
2022-08-05T19:19:56.114Z,0.50
2022-08-05T19:22:27.808Z,0.65
2022-08-05T19:25:00.817Z,0.93
2022-08-05T19:27:30.818Z,1.43
2022-08-05T19:30:01.554Z,0.80
2022-08-05T19:32:32.121Z,0.57
2022-08-05T19:35:05.807Z,0.60
2022-08-05T19:38:04.669Z,0.43
2022-08-05T19:40:24.210Z,0.65
2022-08-05T19:43:00.872Z,0.50
2022-08-05T19:45:36.934Z,0.90
2022-08-05T19:48:05.651Z,0.50
2022-08-05T19:50:35.107Z,0.40
2022-08-05T19:53:09.418Z,0.40
2022-08-05T19:56:19.234Z,0.70
2022-08-05T19:58:29.465Z,0.50
2022-08-05T20:01:02.211Z,0.70
2022-08-05T20:03:38.714Z,0.40
2022-08-05T20:09:53.573Z,0.45
2022-08-05T20:12:23.748Z,0.57
2022-08-05T20:14:52.490Z,0.40
2022-08-05T20:17:24.692Z,0.50
2022-08-05T20:19:56.568Z,1.60
2022-08-05T20:22:27.132Z,0.37
2022-08-05T20:24:55.351Z,0.60
2022-08-05T20:27:26.694Z,0.70
2022-08-05T20:29:58.288Z,0.40
2022-08-05T20:32:28.622Z,0.77
2022-08-05T20:34:57.007Z,0.45
2022-08-05T20:38:06.227Z,0.40
2022-08-05T20:40:14.203Z,0.50
2022-08-05T20:42:41.839Z,0.57
2022-08-05T20:45:12.214Z,0.60
2022-08-05T20:47:42.284Z,0.60
2022-08-05T20:50:12.080Z,0.60
2022-08-05T20:52:42.215Z,0.57
2022-08-05T20:56:07.274Z,0.60
2022-08-05T20:57:58.409Z,0.65
2022-08-05T21:00:44.434Z,0.60
2022-08-05T21:03:21.517Z,0.70
2022-08-05T21:05:53.829Z,0.60
2022-08-05T21:08:26.682Z,0.60
2022-08-05T21:10:58.352Z,1.10
2022-08-05T21:13:48.354Z,0.77
2022-08-05T21:16:20.823Z,0.80
2022-08-05T21:18:52.350Z,0.50
2022-08-05T21:21:20.423Z,1.00
2022-08-05T21:23:52.989Z,0.52
2022-08-05T21:26:20.825Z,0.80
2022-08-05T21:28:56.227Z,0.73
2022-08-05T21:31:41.303Z,0.60
2022-08-05T21:34:11.456Z,0.85
2022-08-05T21:36:39.569Z,0.60
2022-08-05T21:39:14.249Z,1.10
2022-08-05T21:41:52.809Z,1.10
2022-08-05T21:44:28.678Z,0.70
2022-08-05T21:46:58.238Z,0.70
2022-08-05T21:49:59.336Z,0.50
2022-08-05T21:52:27.894Z,1.80
2022-08-05T21:56:09.640Z,2.58
2022-08-05T21:58:48.225Z,0.77
2022-08-05T22:01:25.900Z,1.10
2022-08-05T22:03:54.057Z,0.73
2022-08-05T22:06:35.581Z,0.80
2022-08-05T22:09:14.557Z,0.80
2022-08-05T22:11:46.970Z,0.80
2022-08-05T22:14:33.713Z,0.70
2022-08-05T22:17:06.807Z,0.73
2022-08-05T22:20:00.270Z,0.97
2022-08-05T22:22:29.828Z,0.68
2022-08-05T22:25:18.067Z,0.75
2022-08-05T22:28:11.166Z,1.10
2022-08-05T22:30:55.345Z,0.77
2022-08-05T22:33:55.898Z,0.90
2022-08-05T22:36:15.134Z,0.70
2022-08-05T22:38:48.185Z,0.70
2022-08-05T22:42:05.554Z,1.00
2022-08-05T22:44:05.818Z,0.90
2022-08-05T22:46:39.964Z,0.93
2022-08-05T22:49:12.443Z,0.95
2022-08-05T22:52:05.945Z,1.35
2022-08-05T22:54:37.360Z,1.30
2022-08-05T22:57:08.553Z,2.60
2022-08-05T22:59:43.966Z,1.70
2022-08-05T23:02:17.891Z,3.40
2022-08-05T23:04:51.949Z,3.22
2022-08-05T23:07:22.251Z,2.25
2022-08-05T23:10:01.731Z,1.80
2022-08-05T23:12:32.585Z,3.10
2022-08-05T23:15:01.346Z,1.80
2022-08-05T23:17:37.156Z,1.60
2022-08-05T23:20:10.546Z,1.40
2022-08-05T23:22:47.736Z,1.60
2022-08-05T23:25:53.523Z,1.90
2022-08-05T23:28:08.828Z,1.83
2022-08-05T23:30:40.633Z,2.10
2022-08-05T23:33:22.092Z,2.05
2022-08-05T23:35:56.303Z,2.50
2022-08-05T23:38:25.907Z,2.10
2022-08-05T23:40:55.303Z,2.08
2022-08-05T23:43:37.312Z,2.35
2022-08-05T23:46:20.215Z,2.55
2022-08-05T23:49:52.209Z,2.53
2022-08-05T23:52:30.732Z,2.80
2022-08-05T23:55:00.745Z,2.90
2022-08-05T23:57:32.769Z,2.80
